sensor_id;sensor_type;location;lat;lon;timestamp;P1;durP1;ratioP1;P2;durP2;ratioP2
77117;SDS011;66072;50.238;19.228;2023-03-01T00:01:12;110.30;;;46.80;;
77117;SDS011;66072;50.238;19.228;2023-03-01T00:03:41;95.60;;;45.00;;
77117;SDS011;66072;50.238;19.228;2023-03-01T00:06:10;100.80;;;44.60;;
77117;SDS011;66072;50.238;19.228;2023-03-01T00:08:37;106.60;;;47.20;;
77117;SDS011;66072;50.238;19.228;2023-03-01T00:11:07;97.60;;;41.30;;
77117;SDS011;66072;50.238;19.228;2023-03-01T00:13:46;76.40;;;32.50;;
77117;SDS011;66072;50.238;19.228;2023-03-01T00:16:19;86.40;;;37.00;;
77117;SDS011;66072;50.238;19.228;2023-03-01T00:18:56;96.00;;;39.00;;
77117;SDS011;66072;50.238;19.228;2023-03-01T00:21:25;84.50;;;36.10;;
77117;SDS011;66072;50.238;19.228;2023-03-01T00:23:53;88.90;;;34.80;;
77117;SDS011;66072;50.238;19.228;2023-03-01T00:26:22;90.60;;;35.00;;
77117;SDS011;66072;50.238;19.228;2023-03-01T00:28:51;90.40;;;37.50;;
77117;SDS011;66072;50.238;19.228;2023-03-01T00:31:20;96.60;;;41.00;;
77117;SDS011;66072;50.238;19.228;2023-03-01T00:33:52;83.90;;;39.60;;
77117;SDS011;66072;50.238;19.228;2023-03-01T00:36:24;88.50;;;36.90;;
77117;SDS011;66072;50.238;19.228;2023-03-01T00:38:53;93.50;;;39.50;;
77117;SDS011;66072;50.238;19.228;2023-03-01T00:41:22;88.00;;;38.20;;
77117;SDS011;66072;50.238;19.228;2023-03-01T00:43:50;79.80;;;36.20;;
77117;SDS011;66072;50.238;19.228;2023-03-01T00:46:19;89.70;;;38.00;;
77117;SDS011;66072;50.238;19.228;2023-03-01T00:51:17;54.70;;;25.20;;
77117;SDS011;66072;50.238;19.228;2023-03-01T00:56:17;76.10;;;35.80;;
77117;SDS011;66072;50.238;19.228;2023-03-01T00:58:44;100.90;;;40.80;;
77117;SDS011;66072;50.238;19.228;2023-03-01T01:01:13;109.40;;;42.90;;
77117;SDS011;66072;50.238;19.228;2023-03-01T01:03:47;107.80;;;45.90;;
77117;SDS011;66072;50.238;19.228;2023-03-01T01:06:20;101.00;;;44.70;;
77117;SDS011;66072;50.238;19.228;2023-03-01T01:08:48;106.10;;;49.00;;
77117;SDS011;66072;50.238;19.228;2023-03-01T01:11:17;97.20;;;43.50;;
77117;SDS011;66072;50.238;19.228;2023-03-01T01:13:46;107.30;;;48.40;;
77117;SDS011;66072;50.238;19.228;2023-03-01T01:16:15;97.30;;;42.60;;
77117;SDS011;66072;50.238;19.228;2023-03-01T01:18:44;106.80;;;47.20;;
77117;SDS011;66072;50.238;19.228;2023-03-01T01:21:13;100.00;;;40.20;;
77117;SDS011;66072;50.238;19.228;2023-03-01T01:23:43;97.80;;;42.00;;
77117;SDS011;66072;50.238;19.228;2023-03-01T01:26:17;98.80;;;44.90;;
77117;SDS011;66072;50.238;19.228;2023-03-01T01:28:52;114.30;;;46.30;;
77117;SDS011;66072;50.238;19.228;2023-03-01T01:31:21;93.40;;;41.00;;
77117;SDS011;66072;50.238;19.228;2023-03-01T01:33:50;105.00;;;43.00;;
77117;SDS011;66072;50.238;19.228;2023-03-01T01:36:18;99.50;;;44.00;;
77117;SDS011;66072;50.238;19.228;2023-03-01T01:38:46;108.60;;;49.40;;
77117;SDS011;66072;50.238;19.228;2023-03-01T01:41:14;93.90;;;44.50;;
77117;SDS011;66072;50.238;19.228;2023-03-01T01:43:45;87.40;;;40.10;;
77117;SDS011;66072;50.238;19.228;2023-03-01T01:46:28;85.90;;;39.10;;
77117;SDS011;66072;50.238;19.228;2023-03-01T01:49:02;90.90;;;40.80;;
77117;SDS011;66072;50.238;19.228;2023-03-01T01:51:35;97.60;;;42.40;;
77117;SDS011;66072;50.238;19.228;2023-03-01T01:57:11;87.40;;;38.10;;
77117;SDS011;66072;50.238;19.228;2023-03-01T01:59:45;99.20;;;42.40;;
77117;SDS011;66072;50.238;19.228;2023-03-01T02:02:18;99.50;;;42.70;;
77117;SDS011;66072;50.238;19.228;2023-03-01T02:04:47;92.40;;;41.20;;
77117;SDS011;66072;50.238;19.228;2023-03-01T02:07:18;85.20;;;38.60;;
77117;SDS011;66072;50.238;19.228;2023-03-01T02:09:49;97.20;;;41.50;;
77117;SDS011;66072;50.238;19.228;2023-03-01T02:12:20;87.80;;;39.20;;
77117;SDS011;66072;50.238;19.228;2023-03-01T02:14:50;91.60;;;41.60;;
77117;SDS011;66072;50.238;19.228;2023-03-01T02:17:18;99.70;;;44.60;;
77117;SDS011;66072;50.238;19.228;2023-03-01T02:22:32;99.60;;;43.60;;
77117;SDS011;66072;50.238;19.228;2023-03-01T02:25:05;96.10;;;46.40;;
77117;SDS011;66072;50.238;19.228;2023-03-01T02:27:40;95.00;;;45.80;;
77117;SDS011;66072;50.238;19.228;2023-03-01T02:30:34;103.00;;;44.30;;
77117;SDS011;66072;50.238;19.228;2023-03-01T02:33:03;103.20;;;47.20;;
77117;SDS011;66072;50.238;19.228;2023-03-01T02:35:32;86.10;;;38.20;;
77117;SDS011;66072;50.238;19.228;2023-03-01T02:38:05;89.70;;;41.90;;
77117;SDS011;66072;50.238;19.228;2023-03-01T02:40:36;95.40;;;41.20;;
77117;SDS011;66072;50.238;19.228;2023-03-01T02:43:06;102.60;;;42.20;;
77117;SDS011;66072;50.238;19.228;2023-03-01T02:45:36;99.80;;;43.30;;
77117;SDS011;66072;50.238;19.228;2023-03-01T02:48:03;80.70;;;40.80;;
77117;SDS011;66072;50.238;19.228;2023-03-01T02:50:41;101.90;;;46.20;;
77117;SDS011;66072;50.238;19.228;2023-03-01T02:56:42;102.90;;;45.90;;
77117;SDS011;66072;50.238;19.228;2023-03-01T02:59:11;98.60;;;46.40;;
77117;SDS011;66072;50.238;19.228;2023-03-01T03:01:39;92.30;;;43.70;;
77117;SDS011;66072;50.238;19.228;2023-03-01T03:04:08;102.70;;;44.40;;
77117;SDS011;66072;50.238;19.228;2023-03-01T03:06:38;86.30;;;42.80;;
77117;SDS011;66072;50.238;19.228;2023-03-01T03:09:05;94.10;;;41.20;;
77117;SDS011;66072;50.238;19.228;2023-03-01T03:11:33;82.10;;;36.10;;
77117;SDS011;66072;50.238;19.228;2023-03-01T03:14:00;93.10;;;37.40;;
77117;SDS011;66072;50.238;19.228;2023-03-01T03:16:28;88.70;;;43.20;;
77117;SDS011;66072;50.238;19.228;2023-03-01T03:18:56;85.70;;;40.40;;
77117;SDS011;66072;50.238;19.228;2023-03-01T03:21:23;95.00;;;41.50;;
77117;SDS011;66072;50.238;19.228;2023-03-01T03:23:51;88.50;;;40.70;;
77117;SDS011;66072;50.238;19.228;2023-03-01T03:26:19;89.70;;;41.30;;
77117;SDS011;66072;50.238;19.228;2023-03-01T03:28:46;97.00;;;42.20;;
77117;SDS011;66072;50.238;19.228;2023-03-01T03:31:14;89.10;;;44.80;;
77117;SDS011;66072;50.238;19.228;2023-03-01T03:33:41;89.70;;;38.10;;
77117;SDS011;66072;50.238;19.228;2023-03-01T03:36:09;84.90;;;40.10;;
77117;SDS011;66072;50.238;19.228;2023-03-01T03:38:42;83.40;;;38.00;;
77117;SDS011;66072;50.238;19.228;2023-03-01T03:41:09;92.10;;;40.60;;
77117;SDS011;66072;50.238;19.228;2023-03-01T03:43:37;96.70;;;44.50;;
77117;SDS011;66072;50.238;19.228;2023-03-01T03:46:06;91.90;;;43.20;;
77117;SDS011;66072;50.238;19.228;2023-03-01T03:48:35;89.40;;;41.10;;
77117;SDS011;66072;50.238;19.228;2023-03-01T03:51:04;105.80;;;45.50;;
77117;SDS011;66072;50.238;19.228;2023-03-01T03:53:33;90.50;;;39.10;;
77117;SDS011;66072;50.238;19.228;2023-03-01T03:56:01;102.00;;;44.50;;
77117;SDS011;66072;50.238;19.228;2023-03-01T03:58:28;97.90;;;45.20;;
77117;SDS011;66072;50.238;19.228;2023-03-01T04:00:56;97.90;;;44.10;;
77117;SDS011;66072;50.238;19.228;2023-03-01T04:03:25;102.30;;;41.20;;
77117;SDS011;66072;50.238;19.228;2023-03-01T04:05:54;114.30;;;48.50;;
77117;SDS011;66072;50.238;19.228;2023-03-01T04:08:22;88.30;;;39.20;;
77117;SDS011;66072;50.238;19.228;2023-03-01T04:10:50;88.30;;;42.80;;
77117;SDS011;66072;50.238;19.228;2023-03-01T04:13:20;83.00;;;38.90;;
77117;SDS011;66072;50.238;19.228;2023-03-01T04:15:50;87.50;;;42.70;;
77117;SDS011;66072;50.238;19.228;2023-03-01T04:18:21;105.30;;;46.10;;
77117;SDS011;66072;50.238;19.228;2023-03-01T04:20:50;78.40;;;36.50;;
77117;SDS011;66072;50.238;19.228;2023-03-01T04:23:18;95.50;;;44.70;;
77117;SDS011;66072;50.238;19.228;2023-03-01T04:25:52;92.90;;;42.30;;
77117;SDS011;66072;50.238;19.228;2023-03-01T04:28:22;93.30;;;48.30;;
77117;SDS011;66072;50.238;19.228;2023-03-01T04:30:51;88.00;;;42.80;;
77117;SDS011;66072;50.238;19.228;2023-03-01T04:33:20;98.30;;;44.50;;
77117;SDS011;66072;50.238;19.228;2023-03-01T04:35:48;95.20;;;42.80;;
77117;SDS011;66072;50.238;19.228;2023-03-01T04:38:17;75.00;;;34.60;;
77117;SDS011;66072;50.238;19.228;2023-03-01T04:40:45;85.70;;;39.10;;
77117;SDS011;66072;50.238;19.228;2023-03-01T04:43:13;83.80;;;35.30;;
77117;SDS011;66072;50.238;19.228;2023-03-01T04:45:40;84.50;;;36.60;;
77117;SDS011;66072;50.238;19.228;2023-03-01T04:48:08;80.40;;;37.90;;
77117;SDS011;66072;50.238;19.228;2023-03-01T04:50:36;75.70;;;32.10;;
77117;SDS011;66072;50.238;19.228;2023-03-01T04:53:04;77.50;;;34.40;;
77117;SDS011;66072;50.238;19.228;2023-03-01T04:55:31;83.60;;;39.20;;
77117;SDS011;66072;50.238;19.228;2023-03-01T04:57:59;75.60;;;37.50;;
77117;SDS011;66072;50.238;19.228;2023-03-01T05:00:26;78.60;;;38.40;;
77117;SDS011;66072;50.238;19.228;2023-03-01T05:02:58;96.60;;;40.30;;
77117;SDS011;66072;50.238;19.228;2023-03-01T05:08:04;77.90;;;36.60;;
77117;SDS011;66072;50.238;19.228;2023-03-01T05:10:36;75.70;;;36.30;;
77117;SDS011;66072;50.238;19.228;2023-03-01T05:13:03;88.10;;;38.30;;
77117;SDS011;66072;50.238;19.228;2023-03-01T05:15:31;85.60;;;42.00;;
77117;SDS011;66072;50.238;19.228;2023-03-01T05:17:59;62.10;;;24.80;;
77117;SDS011;66072;50.238;19.228;2023-03-01T05:20:27;77.80;;;35.70;;
77117;SDS011;66072;50.238;19.228;2023-03-01T05:22:57;51.90;;;24.20;;
77117;SDS011;66072;50.238;19.228;2023-03-01T05:25:26;67.90;;;32.90;;
77117;SDS011;66072;50.238;19.228;2023-03-01T05:27:54;77.20;;;36.60;;
77117;SDS011;66072;50.238;19.228;2023-03-01T05:30:22;66.80;;;31.50;;
77117;SDS011;66072;50.238;19.228;2023-03-01T05:32:50;85.80;;;40.20;;
77117;SDS011;66072;50.238;19.228;2023-03-01T05:35:18;74.00;;;37.60;;
77117;SDS011;66072;50.238;19.228;2023-03-01T05:37:47;79.00;;;39.80;;
77117;SDS011;66072;50.238;19.228;2023-03-01T05:40:17;73.50;;;34.10;;
77117;SDS011;66072;50.238;19.228;2023-03-01T05:42:51;76.00;;;35.20;;
77117;SDS011;66072;50.238;19.228;2023-03-01T05:45:24;75.60;;;34.60;;
77117;SDS011;66072;50.238;19.228;2023-03-01T05:47:53;80.60;;;39.50;;
77117;SDS011;66072;50.238;19.228;2023-03-01T05:50:22;89.00;;;40.40;;
77117;SDS011;66072;50.238;19.228;2023-03-01T05:53:01;85.90;;;39.40;;
77117;SDS011;66072;50.238;19.228;2023-03-01T05:55:41;80.30;;;38.20;;
77117;SDS011;66072;50.238;19.228;2023-03-01T05:58:12;88.30;;;41.20;;
77117;SDS011;66072;50.238;19.228;2023-03-01T06:00:42;76.50;;;38.30;;
77117;SDS011;66072;50.238;19.228;2023-03-01T06:03:11;84.90;;;36.70;;
77117;SDS011;66072;50.238;19.228;2023-03-01T06:05:41;77.10;;;35.70;;
77117;SDS011;66072;50.238;19.228;2023-03-01T06:08:09;75.90;;;35.70;;
77117;SDS011;66072;50.238;19.228;2023-03-01T06:10:38;82.10;;;37.90;;
77117;SDS011;66072;50.238;19.228;2023-03-01T06:13:06;79.20;;;35.50;;
77117;SDS011;66072;50.238;19.228;2023-03-01T06:15:34;70.70;;;34.90;;
77117;SDS011;66072;50.238;19.228;2023-03-01T06:18:01;76.80;;;35.20;;
77117;SDS011;66072;50.238;19.228;2023-03-01T06:20:29;83.50;;;38.00;;
77117;SDS011;66072;50.238;19.228;2023-03-01T06:22:56;72.10;;;33.30;;
77117;SDS011;66072;50.238;19.228;2023-03-01T06:25:24;75.20;;;34.20;;
77117;SDS011;66072;50.238;19.228;2023-03-01T06:27:53;71.60;;;34.20;;
77117;SDS011;66072;50.238;19.228;2023-03-01T06:30:22;71.70;;;33.40;;
77117;SDS011;66072;50.238;19.228;2023-03-01T06:32:50;79.00;;;33.00;;
77117;SDS011;66072;50.238;19.228;2023-03-01T06:35:18;76.90;;;36.50;;
77117;SDS011;66072;50.238;19.228;2023-03-01T06:37:47;86.20;;;36.70;;
77117;SDS011;66072;50.238;19.228;2023-03-01T06:40:15;59.20;;;30.50;;
77117;SDS011;66072;50.238;19.228;2023-03-01T06:42:47;81.20;;;37.30;;
77117;SDS011;66072;50.238;19.228;2023-03-01T06:45:16;75.80;;;34.90;;
77117;SDS011;66072;50.238;19.228;2023-03-01T06:47:46;79.00;;;34.90;;
77117;SDS011;66072;50.238;19.228;2023-03-01T06:50:14;75.10;;;36.20;;
77117;SDS011;66072;50.238;19.228;2023-03-01T06:52:43;79.80;;;37.10;;
77117;SDS011;66072;50.238;19.228;2023-03-01T06:55:11;68.80;;;32.50;;
77117;SDS011;66072;50.238;19.228;2023-03-01T06:57:40;70.30;;;31.90;;
77117;SDS011;66072;50.238;19.228;2023-03-01T07:00:08;78.20;;;35.30;;
77117;SDS011;66072;50.238;19.228;2023-03-01T07:02:36;70.20;;;32.60;;
77117;SDS011;66072;50.238;19.228;2023-03-01T07:05:04;79.80;;;33.30;;
77117;SDS011;66072;50.238;19.228;2023-03-01T07:07:32;68.50;;;33.30;;
77117;SDS011;66072;50.238;19.228;2023-03-01T07:09:59;74.90;;;34.70;;
77117;SDS011;66072;50.238;19.228;2023-03-01T07:12:27;64.30;;;31.60;;
77117;SDS011;66072;50.238;19.228;2023-03-01T07:14:55;73.70;;;36.80;;
77117;SDS011;66072;50.238;19.228;2023-03-01T07:17:22;65.40;;;35.00;;
77117;SDS011;66072;50.238;19.228;2023-03-01T07:19:50;67.50;;;31.20;;
77117;SDS011;66072;50.238;19.228;2023-03-01T07:22:17;66.90;;;32.60;;
77117;SDS011;66072;50.238;19.228;2023-03-01T07:24:45;86.20;;;37.50;;
77117;SDS011;66072;50.238;19.228;2023-03-01T07:27:13;68.20;;;29.10;;
77117;SDS011;66072;50.238;19.228;2023-03-01T07:29:40;64.20;;;28.90;;
77117;SDS011;66072;50.238;19.228;2023-03-01T07:32:08;86.70;;;40.20;;
77117;SDS011;66072;50.238;19.228;2023-03-01T07:34:37;57.90;;;28.80;;
77117;SDS011;66072;50.238;19.228;2023-03-01T07:37:04;54.00;;;24.90;;
77117;SDS011;66072;50.238;19.228;2023-03-01T07:39:32;64.70;;;24.20;;
77117;SDS011;66072;50.238;19.228;2023-03-01T07:42:00;45.70;;;26.40;;
77117;SDS011;66072;50.238;19.228;2023-03-01T07:44:27;63.30;;;29.90;;
77117;SDS011;66072;50.238;19.228;2023-03-01T07:46:55;35.70;;;19.80;;
77117;SDS011;66072;50.238;19.228;2023-03-01T07:49:22;63.00;;;32.00;;
77117;SDS011;66072;50.238;19.228;2023-03-01T07:51:50;74.70;;;36.00;;
77117;SDS011;66072;50.238;19.228;2023-03-01T07:54:17;65.20;;;28.90;;
77117;SDS011;66072;50.238;19.228;2023-03-01T07:56:45;60.40;;;28.60;;
77117;SDS011;66072;50.238;19.228;2023-03-01T07:59:13;47.90;;;26.30;;
77117;SDS011;66072;50.238;19.228;2023-03-01T08:01:40;58.10;;;31.40;;
77117;SDS011;66072;50.238;19.228;2023-03-01T08:04:08;68.10;;;29.50;;
77117;SDS011;66072;50.238;19.228;2023-03-01T08:06:36;65.30;;;29.40;;
77117;SDS011;66072;50.238;19.228;2023-03-01T08:09:03;67.90;;;30.60;;
77117;SDS011;66072;50.238;19.228;2023-03-01T08:11:31;57.70;;;31.30;;
77117;SDS011;66072;50.238;19.228;2023-03-01T08:13:58;53.30;;;28.50;;
77117;SDS011;66072;50.238;19.228;2023-03-01T08:16:26;62.80;;;31.40;;
77117;SDS011;66072;50.238;19.228;2023-03-01T08:18:54;52.60;;;27.10;;
77117;SDS011;66072;50.238;19.228;2023-03-01T08:21:22;34.70;;;17.40;;
77117;SDS011;66072;50.238;19.228;2023-03-01T08:23:49;51.50;;;27.10;;
77117;SDS011;66072;50.238;19.228;2023-03-01T08:26:19;130.40;;;37.00;;
77117;SDS011;66072;50.238;19.228;2023-03-01T08:31:26;53.60;;;17.70;;
77117;SDS011;66072;50.238;19.228;2023-03-01T08:33:56;46.00;;;23.70;;
77117;SDS011;66072;50.238;19.228;2023-03-01T08:36:27;41.60;;;22.40;;
77117;SDS011;66072;50.238;19.228;2023-03-01T08:38:57;31.40;;;19.50;;
77117;SDS011;66072;50.238;19.228;2023-03-01T08:41:25;33.40;;;18.40;;
77117;SDS011;66072;50.238;19.228;2023-03-01T08:43:53;30.60;;;14.80;;
77117;SDS011;66072;50.238;19.228;2023-03-01T08:46:21;30.90;;;16.70;;
77117;SDS011;66072;50.238;19.228;2023-03-01T08:48:49;31.70;;;17.90;;
77117;SDS011;66072;50.238;19.228;2023-03-01T08:51:17;41.90;;;20.90;;
77117;SDS011;66072;50.238;19.228;2023-03-01T08:53:45;37.70;;;20.70;;
77117;SDS011;66072;50.238;19.228;2023-03-01T08:56:13;35.30;;;18.20;;
77117;SDS011;66072;50.238;19.228;2023-03-01T08:58:46;32.50;;;17.90;;
77117;SDS011;66072;50.238;19.228;2023-03-01T09:01:15;20.10;;;10.20;;
77117;SDS011;66072;50.238;19.228;2023-03-01T09:03:45;17.60;;;10.60;;
77117;SDS011;66072;50.238;19.228;2023-03-01T09:06:13;19.00;;;10.90;;
77117;SDS011;66072;50.238;19.228;2023-03-01T09:08:43;23.20;;;14.40;;
77117;SDS011;66072;50.238;19.228;2023-03-01T09:11:13;21.30;;;12.40;;
77117;SDS011;66072;50.238;19.228;2023-03-01T09:13:43;17.70;;;10.50;;
77117;SDS011;66072;50.238;19.228;2023-03-01T09:16:13;21.80;;;12.40;;
77117;SDS011;66072;50.238;19.228;2023-03-01T09:18:43;24.60;;;13.50;;
77117;SDS011;66072;50.238;19.228;2023-03-01T09:21:15;18.70;;;10.20;;
77117;SDS011;66072;50.238;19.228;2023-03-01T09:23:51;17.10;;;9.70;;
77117;SDS011;66072;50.238;19.228;2023-03-01T09:26:19;15.40;;;8.00;;
77117;SDS011;66072;50.238;19.228;2023-03-01T09:28:49;32.30;;;14.80;;
77117;SDS011;66072;50.238;19.228;2023-03-01T09:31:19;24.10;;;13.90;;
77117;SDS011;66072;50.238;19.228;2023-03-01T09:33:49;20.30;;;11.10;;
77117;SDS011;66072;50.238;19.228;2023-03-01T09:36:19;25.60;;;11.10;;
77117;SDS011;66072;50.238;19.228;2023-03-01T09:38:49;23.90;;;14.00;;
77117;SDS011;66072;50.238;19.228;2023-03-01T09:43:49;26.90;;;15.40;;
77117;SDS011;66072;50.238;19.228;2023-03-01T09:46:21;34.90;;;19.80;;
77117;SDS011;66072;50.238;19.228;2023-03-01T09:48:57;38.00;;;20.20;;
77117;SDS011;66072;50.238;19.228;2023-03-01T09:51:31;28.40;;;16.50;;
77117;SDS011;66072;50.238;19.228;2023-03-01T09:54:02;27.50;;;17.20;;
77117;SDS011;66072;50.238;19.228;2023-03-01T09:56:35;38.80;;;20.30;;
77117;SDS011;66072;50.238;19.228;2023-03-01T10:01:55;27.80;;;16.50;;
77117;SDS011;66072;50.238;19.228;2023-03-01T10:10:07;46.30;;;24.90;;
77117;SDS011;66072;50.238;19.228;2023-03-01T10:12:40;37.40;;;19.20;;
77117;SDS011;66072;50.238;19.228;2023-03-01T10:15:11;35.50;;;19.10;;
77117;SDS011;66072;50.238;19.228;2023-03-01T10:20:22;47.40;;;23.70;;
77117;SDS011;66072;50.238;19.228;2023-03-01T10:22:52;39.40;;;20.80;;
77117;SDS011;66072;50.238;19.228;2023-03-01T10:25:30;39.30;;;21.30;;
77117;SDS011;66072;50.238;19.228;2023-03-01T10:28:17;34.30;;;19.60;;
77117;SDS011;66072;50.238;19.228;2023-03-01T10:30:45;39.50;;;21.80;;
77117;SDS011;66072;50.238;19.228;2023-03-01T10:33:23;27.20;;;15.50;;
77117;SDS011;66072;50.238;19.228;2023-03-01T10:35:56;39.80;;;22.90;;
77117;SDS011;66072;50.238;19.228;2023-03-01T10:38:24;39.10;;;23.80;;
77117;SDS011;66072;50.238;19.228;2023-03-01T10:43:24;41.80;;;23.00;;
77117;SDS011;66072;50.238;19.228;2023-03-01T10:45:52;40.20;;;23.90;;
77117;SDS011;66072;50.238;19.228;2023-03-01T10:48:21;46.80;;;25.80;;
77117;SDS011;66072;50.238;19.228;2023-03-01T10:53:33;42.50;;;23.00;;
77117;SDS011;66072;50.238;19.228;2023-03-01T10:58:38;40.50;;;23.70;;
77117;SDS011;66072;50.238;19.228;2023-03-01T11:03:42;45.80;;;25.20;;
77117;SDS011;66072;50.238;19.228;2023-03-01T11:08:44;34.90;;;21.20;;
77117;SDS011;66072;50.238;19.228;2023-03-01T11:11:21;42.00;;;25.50;;
77117;SDS011;66072;50.238;19.228;2023-03-01T11:16:25;43.80;;;25.90;;
77117;SDS011;66072;50.238;19.228;2023-03-01T11:18:59;37.70;;;22.30;;
77117;SDS011;66072;50.238;19.228;2023-03-01T11:21:28;37.50;;;22.50;;
77117;SDS011;66072;50.238;19.228;2023-03-01T11:24:00;40.30;;;23.50;;
77117;SDS011;66072;50.238;19.228;2023-03-01T11:26:29;33.00;;;21.20;;
77117;SDS011;66072;50.238;19.228;2023-03-01T11:29:00;45.30;;;23.70;;
77117;SDS011;66072;50.238;19.228;2023-03-01T11:31:32;33.80;;;20.60;;
77117;SDS011;66072;50.238;19.228;2023-03-01T11:34:10;30.80;;;18.60;;
77117;SDS011;66072;50.238;19.228;2023-03-01T11:36:42;27.50;;;17.80;;
77117;SDS011;66072;50.238;19.228;2023-03-01T11:44:55;32.30;;;19.40;;
77117;SDS011;66072;50.238;19.228;2023-03-01T11:50:07;26.10;;;15.80;;
77117;SDS011;66072;50.238;19.228;2023-03-01T12:12:35;26.30;;;16.50;;
77117;SDS011;66072;50.238;19.228;2023-03-01T12:18:07;24.70;;;16.60;;
77117;SDS011;66072;50.238;19.228;2023-03-01T12:23:34;24.50;;;16.30;;
77117;SDS011;66072;50.238;19.228;2023-03-01T12:42:55;22.40;;;15.90;;
77117;SDS011;66072;50.238;19.228;2023-03-01T12:52:09;19.00;;;13.50;;
77117;SDS011;66072;50.238;19.228;2023-03-01T12:54:42;21.20;;;16.00;;
77117;SDS011;66072;50.238;19.228;2023-03-01T12:57:30;21.20;;;15.30;;
77117;SDS011;66072;50.238;19.228;2023-03-01T13:06:00;18.10;;;13.30;;
77117;SDS011;66072;50.238;19.228;2023-03-01T13:11:23;16.80;;;12.60;;
77117;SDS011;66072;50.238;19.228;2023-03-01T13:13:51;15.10;;;10.60;;
77117;SDS011;66072;50.238;19.228;2023-03-01T13:16:22;17.00;;;12.00;;
77117;SDS011;66072;50.238;19.228;2023-03-01T13:19:14;17.00;;;11.90;;
77117;SDS011;66072;50.238;19.228;2023-03-01T13:21:44;17.50;;;11.90;;
77117;SDS011;66072;50.238;19.228;2023-03-01T13:29:47;16.50;;;9.90;;
77117;SDS011;66072;50.238;19.228;2023-03-01T13:32:23;13.90;;;10.70;;
77117;SDS011;66072;50.238;19.228;2023-03-01T13:41:08;13.10;;;9.40;;
77117;SDS011;66072;50.238;19.228;2023-03-01T13:43:40;12.30;;;9.70;;
77117;SDS011;66072;50.238;19.228;2023-03-01T13:46:11;13.30;;;9.70;;
77117;SDS011;66072;50.238;19.228;2023-03-01T13:48:51;12.40;;;9.60;;
77117;SDS011;66072;50.238;19.228;2023-03-01T13:51:24;12.80;;;10.40;;
77117;SDS011;66072;50.238;19.228;2023-03-01T13:53:54;12.60;;;9.70;;
77117;SDS011;66072;50.238;19.228;2023-03-01T13:56:26;15.20;;;10.70;;
77117;SDS011;66072;50.238;19.228;2023-03-01T13:59:01;14.90;;;10.50;;
77117;SDS011;66072;50.238;19.228;2023-03-01T14:01:33;14.40;;;10.90;;
77117;SDS011;66072;50.238;19.228;2023-03-01T14:04:03;15.50;;;11.10;;
77117;SDS011;66072;50.238;19.228;2023-03-01T14:06:49;15.80;;;11.50;;
77117;SDS011;66072;50.238;19.228;2023-03-01T14:09:18;14.20;;;10.50;;
77117;SDS011;66072;50.238;19.228;2023-03-01T14:20:17;16.30;;;11.10;;
77117;SDS011;66072;50.238;19.228;2023-03-01T14:22:47;15.00;;;10.30;;
77117;SDS011;66072;50.238;19.228;2023-03-01T14:25:21;13.40;;;10.00;;
77117;SDS011;66072;50.238;19.228;2023-03-01T14:28:12;15.70;;;10.30;;
77117;SDS011;66072;50.238;19.228;2023-03-01T14:30:43;15.50;;;10.80;;
77117;SDS011;66072;50.238;19.228;2023-03-01T14:35:52;14.20;;;9.80;;
77117;SDS011;66072;50.238;19.228;2023-03-01T14:38:35;12.00;;;9.10;;
77117;SDS011;66072;50.238;19.228;2023-03-01T14:41:09;13.40;;;10.30;;
77117;SDS011;66072;50.238;19.228;2023-03-01T14:43:40;14.10;;;9.90;;
77117;SDS011;66072;50.238;19.228;2023-03-01T14:46:16;12.40;;;9.40;;
77117;SDS011;66072;50.238;19.228;2023-03-01T14:48:48;13.30;;;8.80;;
77117;SDS011;66072;50.238;19.228;2023-03-01T14:51:17;11.90;;;8.50;;
77117;SDS011;66072;50.238;19.228;2023-03-01T14:53:44;12.60;;;9.10;;
77117;SDS011;66072;50.238;19.228;2023-03-01T14:56:17;11.10;;;7.80;;
77117;SDS011;66072;50.238;19.228;2023-03-01T14:58:45;12.60;;;8.30;;
77117;SDS011;66072;50.238;19.228;2023-03-01T15:01:18;11.20;;;8.30;;
77117;SDS011;66072;50.238;19.228;2023-03-01T15:03:49;11.10;;;8.80;;
77117;SDS011;66072;50.238;19.228;2023-03-01T15:06:18;10.60;;;8.40;;
77117;SDS011;66072;50.238;19.228;2023-03-01T15:08:52;11.20;;;7.60;;
77117;SDS011;66072;50.238;19.228;2023-03-01T15:11:29;10.70;;;7.70;;
77117;SDS011;66072;50.238;19.228;2023-03-01T15:13:58;9.50;;;7.20;;
77117;SDS011;66072;50.238;19.228;2023-03-01T15:16:29;9.60;;;7.40;;
77117;SDS011;66072;50.238;19.228;2023-03-01T15:19:04;10.10;;;8.00;;
77117;SDS011;66072;50.238;19.228;2023-03-01T15:21:34;11.20;;;8.20;;
77117;SDS011;66072;50.238;19.228;2023-03-01T15:27:00;11.60;;;8.00;;
77117;SDS011;66072;50.238;19.228;2023-03-01T15:29:29;11.90;;;7.90;;
77117;SDS011;66072;50.238;19.228;2023-03-01T15:32:00;14.70;;;8.30;;
77117;SDS011;66072;50.238;19.228;2023-03-01T15:34:33;11.40;;;7.10;;
77117;SDS011;66072;50.238;19.228;2023-03-01T15:37:06;12.00;;;7.20;;
77117;SDS011;66072;50.238;19.228;2023-03-01T15:39:55;12.90;;;8.20;;
77117;SDS011;66072;50.238;19.228;2023-03-01T15:50:23;12.70;;;9.00;;
77117;SDS011;66072;50.238;19.228;2023-03-01T15:52:54;17.20;;;8.50;;
77117;SDS011;66072;50.238;19.228;2023-03-01T15:55:26;14.30;;;9.30;;
77117;SDS011;66072;50.238;19.228;2023-03-01T15:58:15;21.10;;;10.70;;
77117;SDS011;66072;50.238;19.228;2023-03-01T16:00:45;14.30;;;8.80;;
77117;SDS011;66072;50.238;19.228;2023-03-01T16:03:27;26.50;;;12.10;;
77117;SDS011;66072;50.238;19.228;2023-03-01T16:05:55;21.70;;;9.50;;
77117;SDS011;66072;50.238;19.228;2023-03-01T16:08:22;16.00;;;9.90;;
77117;SDS011;66072;50.238;19.228;2023-03-01T16:10:50;18.70;;;11.70;;
77117;SDS011;66072;50.238;19.228;2023-03-01T16:13:18;19.50;;;11.40;;
77117;SDS011;66072;50.238;19.228;2023-03-01T16:15:46;22.20;;;13.50;;
77117;SDS011;66072;50.238;19.228;2023-03-01T16:18:14;26.30;;;15.30;;
77117;SDS011;66072;50.238;19.228;2023-03-01T16:20:42;35.60;;;19.30;;
77117;SDS011;66072;50.238;19.228;2023-03-01T16:23:10;31.40;;;16.20;;
77117;SDS011;66072;50.238;19.228;2023-03-01T16:25:38;23.50;;;14.60;;
77117;SDS011;66072;50.238;19.228;2023-03-01T16:28:07;22.20;;;12.90;;
77117;SDS011;66072;50.238;19.228;2023-03-01T16:30:35;21.40;;;13.20;;
77117;SDS011;66072;50.238;19.228;2023-03-01T16:33:06;20.30;;;12.80;;
77117;SDS011;66072;50.238;19.228;2023-03-01T16:35:54;21.40;;;12.30;;
77117;SDS011;66072;50.238;19.228;2023-03-01T16:38:22;29.40;;;13.20;;
77117;SDS011;66072;50.238;19.228;2023-03-01T16:40:50;26.90;;;12.60;;
77117;SDS011;66072;50.238;19.228;2023-03-01T16:43:19;21.50;;;12.60;;
77117;SDS011;66072;50.238;19.228;2023-03-01T16:45:47;30.10;;;15.30;;
77117;SDS011;66072;50.238;19.228;2023-03-01T16:48:15;48.00;;;21.10;;
77117;SDS011;66072;50.238;19.228;2023-03-01T16:50:42;49.70;;;21.70;;
77117;SDS011;66072;50.238;19.228;2023-03-01T16:53:10;44.10;;;20.80;;
77117;SDS011;66072;50.238;19.228;2023-03-01T16:55:38;53.60;;;23.80;;